»·PEaware :: N503AM KBUR-KSBD

N503AM :: KBUR-KSBD

FLIGHT INFORMATION

Flight Status: Arrived
Operator: Privately registered:
United States
More flights under this callsign
Pilot: Gary H. (18965)
Aircraft: CESSNA 172 SKYHAWK
(C172)
More flights by this aircraft type
Origin: KBUR Bob Hope-Burbank
United States
Destination: KSBD San Bernardino Intl
United States
More flights between these airports :: More routes between these airports
Route: ELMOO9 ELMOO V186 PDZ
File this flight plan on PilotEdge
Remarks:
Altitude:
(Current/Filed)
4,000ft
Speed:
(Current/Filed)
110kts
Departed: 18-Jul-20 06:14 PM
Arrived: 18-Jul-20 06:54 PM
Distance/Time
Traveled:
57nm/0:39
Distance/Time
To Go:
Arrived

Flight Plot

Page will automatically refresh every two minutes.


Map Options




Map Legend


Flown Route
Filed Route
Departure Airport
Arrival Airport
Navaid (VOR, NDB)
Fix

Horizontal Profiles

Position Reports

Time Latitude Longitude Heading Altitude Ground
Speed
18-Jul-20 17:54 34.199712 -118.359115 233 719ft 8kts
18-Jul-20 17:55 34.199608 -118.359972 241 721ft 0kts
18-Jul-20 17:56 34.199608 -118.359972 241 721ft 0kts
18-Jul-20 17:57 34.199608 -118.359972 241 721ft 0kts
18-Jul-20 17:58 34.199608 -118.359972 241 721ft 0kts
18-Jul-20 17:59 34.199608 -118.359972 241 721ft 0kts
18-Jul-20 18:00 34.199608 -118.359972 241 721ft 0kts
18-Jul-20 18:01 34.199608 -118.359972 241 721ft 0kts
18-Jul-20 18:02 34.199608 -118.359972 241 721ft 0kts
18-Jul-20 18:03 34.199608 -118.359972 241 721ft 0kts
18-Jul-20 18:04 34.199608 -118.359972 241 721ft 0kts
18-Jul-20 18:05 34.199464 -118.358208 69 717ft 8kts
18-Jul-20 18:06 34.201983 -118.358782 348 728ft 11kts
18-Jul-20 18:07 34.205609 -118.359757 348 740ft 15kts
18-Jul-20 18:08 34.209674 -118.360909 344 760ft 13kts
18-Jul-20 18:09 34.210941 -118.361089 52 766ft 0kts
18-Jul-20 18:10 34.210941 -118.361089 52 766ft 0kts
18-Jul-20 18:11 34.210941 -118.361089 52 766ft 0kts
18-Jul-20 18:12 34.211007 -118.360975 59 766ft 5kts
18-Jul-20 18:13 34.195057 -118.355690 169 1151ft 91kts
18-Jul-20 18:14 34.179753 -118.330893 120 1877ft 102kts
18-Jul-20 18:15 34.167388 -118.299790 114 2577ft 102kts
18-Jul-20 18:16 34.156484 -118.268217 114 3259ft 101kts
18-Jul-20 18:17 34.146144 -118.236752 113 3943ft 99kts
18-Jul-20 18:18 34.136078 -118.206026 113 4623ft 97kts
18-Jul-20 18:19 34.125935 -118.175124 113 4998ft 105kts
18-Jul-20 18:20 34.116058 -118.144517 113 4997ft 93kts
18-Jul-20 18:21 34.107004 -118.115920 113 4981ft 90kts
18-Jul-20 18:22 34.099756 -118.086850 108 4971ft 90kts
18-Jul-20 18:23 34.091661 -118.058576 112 4995ft 89kts
18-Jul-20 18:24 34.086905 -118.028743 93 4991ft 93kts
18-Jul-20 18:25 34.086893 -117.997367 93 4979ft 94kts
18-Jul-20 18:26 34.086877 -117.965652 93 4971ft 94kts
18-Jul-20 18:27 34.086839 -117.933929 92 5010ft 98kts
18-Jul-20 18:28 34.086681 -117.900809 92 5031ft 99kts
18-Jul-20 18:29 34.086476 -117.867292 92 5019ft 100kts
18-Jul-20 18:31 34.086195 -117.833561 92 5008ft 100kts
18-Jul-20 18:32 34.081673 -117.800461 102 4992ft 99kts
18-Jul-20 18:33 34.076938 -117.768288 102 5081ft 93kts
18-Jul-20 18:34 34.072235 -117.736207 102 5075ft 98kts
18-Jul-20 18:35 34.067469 -117.703773 102 5045ft 96kts
18-Jul-20 18:36 34.062804 -117.672011 102 5035ft 96kts
18-Jul-20 18:37 34.058082 -117.640277 102 5027ft 96kts
18-Jul-20 18:38 34.053234 -117.608359 102 5020ft 96kts
18-Jul-20 18:39 34.048328 -117.576407 97 5015ft 97kts
18-Jul-20 18:40 34.051776 -117.543604 82 5015ft 98kts
18-Jul-20 18:41 34.055821 -117.510854 82 5009ft 98kts
18-Jul-20 18:42 34.059874 -117.478724 82 4657ft 98kts
18-Jul-20 18:43 34.063929 -117.445611 82 4156ft 100kts
18-Jul-20 18:44 34.067818 -117.412003 82 3656ft 101kts
18-Jul-20 18:45 34.071473 -117.378152 82 3158ft 102kts
18-Jul-20 18:45 34.074645 -117.349689 73 2745ft 102kts
18-Jul-20 18:47 34.078365 -117.310680 97 2210ft 100kts
18-Jul-20 18:48 34.075421 -117.279452 78 2098ft 89kts
18-Jul-20 18:48 34.078380 -117.254906 73 2105ft 86kts
18-Jul-20 18:49 34.083984 -117.228153 72 2077ft 82kts
18-Jul-20 18:51 34.093688 -117.198721 358 1752ft 65kts
18-Jul-20 18:52 34.104254 -117.207419 239 1458ft 62kts
18-Jul-20 18:52 34.098848 -117.222811 251 1150ft 41kts
18-Jul-20 18:53 34.099740 -117.226847 332 1139ft 16kts

Navigation Log

Ident Type
Flight plan parsing failed, navigation log unavailable